createdAt,value
2022-07-27T00:01:43.928Z,19.77
2022-07-27T00:04:39.894Z,19.73
2022-07-27T00:07:08.369Z,20.27
2022-07-27T00:09:48.158Z,19.87
2022-07-27T00:12:32.257Z,20.10
2022-07-27T00:15:18.394Z,20.10
2022-07-27T00:17:46.928Z,20.10
2022-07-27T00:20:31.462Z,20.17
2022-07-27T00:23:06.067Z,20.50
2022-07-27T00:25:38.794Z,20.60
2022-07-27T00:28:18.283Z,21.20
2022-07-27T00:30:56.590Z,21.13
2022-07-27T00:33:40.296Z,21.67
2022-07-27T00:36:17.835Z,22.10
2022-07-27T00:38:52.846Z,22.07
2022-07-27T00:41:29.200Z,22.27
2022-07-27T00:43:59.205Z,22.10
2022-07-27T00:46:34.385Z,22.47
2022-07-27T00:49:17.407Z,22.77
2022-07-27T00:51:46.154Z,22.63
2022-07-27T00:54:29.141Z,22.93
2022-07-27T00:56:59.608Z,23.50
2022-07-27T00:59:29.002Z,23.40
2022-07-27T01:02:04.497Z,23.43
2022-07-27T01:04:53.701Z,23.80
2022-07-27T01:07:24.485Z,24.07
2022-07-27T01:09:58.220Z,24.10
2022-07-27T01:12:37.229Z,25.07
2022-07-27T01:15:07.143Z,24.33
2022-07-27T01:17:43.275Z,24.53
2022-07-27T01:20:12.326Z,25.10
2022-07-27T01:22:42.147Z,24.87
2022-07-27T01:25:17.996Z,25.27
2022-07-27T01:27:55.327Z,26.03
2022-07-27T01:30:31.897Z,26.67
2022-07-27T01:33:09.069Z,26.87
2022-07-27T01:35:39.269Z,27.27
2022-07-27T01:38:43.076Z,28.20
2022-07-27T01:41:22.883Z,28.13
2022-07-27T01:44:05.278Z,28.63
2022-07-27T01:46:45.807Z,29.17
2022-07-27T01:49:25.733Z,29.87
2022-07-27T01:51:54.317Z,30.63
2022-07-27T01:54:52.083Z,29.87
2022-07-27T01:57:38.337Z,30.40
2022-07-27T02:00:25.207Z,31.00
2022-07-27T02:03:24.185Z,31.97
2022-07-27T02:06:06.885Z,32.30
2022-07-27T02:08:49.252Z,33.70
2022-07-27T02:11:37.434Z,33.53
2022-07-27T02:14:10.090Z,34.87
2022-07-27T02:16:46.726Z,34.83
2022-07-27T02:19:45.127Z,35.57
2022-07-27T02:22:28.014Z,35.93
2022-07-27T02:25:17.436Z,35.37
2022-07-27T02:27:54.552Z,36.80
2022-07-27T02:30:29.551Z,36.27
2022-07-27T02:33:25.728Z,36.70
2022-07-27T02:35:55.115Z,37.73
2022-07-27T02:38:26.080Z,37.40
2022-07-27T02:40:54.584Z,37.47
2022-07-27T02:43:31.429Z,37.33
2022-07-27T02:46:49.666Z,37.87
2022-07-27T02:49:42.972Z,39.90
2022-07-27T02:52:28.699Z,40.23
2022-07-27T02:55:04.970Z,40.37
2022-07-27T02:57:41.406Z,41.60
2022-07-27T03:00:14.075Z,41.97
2022-07-27T03:02:57.474Z,42.10
2022-07-27T03:05:33.701Z,44.17
2022-07-27T03:08:30.958Z,44.77
2022-07-27T03:11:35.484Z,47.57
2022-07-27T03:14:07.826Z,47.90
2022-07-27T03:17:31.701Z,50.30
2022-07-27T03:20:49.850Z,52.97
2022-07-27T03:23:34.611Z,55.73
2022-07-27T03:26:03.003Z,57.90
2022-07-27T03:28:55.095Z,58.60
2022-07-27T03:31:38.458Z,61.20
2022-07-27T03:34:20.061Z,65.83
2022-07-27T03:37:05.852Z,65.70
2022-07-27T03:39:38.736Z,67.30
2022-07-27T03:42:13.174Z,68.00
2022-07-27T03:44:41.493Z,67.90
2022-07-27T03:47:16.107Z,69.43
2022-07-27T03:49:49.034Z,70.37
2022-07-27T03:52:24.602Z,70.33
2022-07-27T03:54:57.429Z,70.43
2022-07-27T03:58:03.930Z,72.90
2022-07-27T04:00:42.807Z,73.30
2022-07-27T04:03:11.480Z,72.30
2022-07-27T04:05:42.912Z,73.80
2022-07-27T04:08:24.200Z,77.87
2022-07-27T04:11:03.226Z,78.40
2022-07-27T04:13:33.664Z,83.80
2022-07-27T04:16:10.737Z,80.70
2022-07-27T04:18:53.516Z,81.27
2022-07-27T04:21:33.847Z,83.03
2022-07-27T04:24:06.014Z,83.80
2022-07-27T04:27:00.837Z,83.00
2022-07-27T04:29:40.147Z,82.43
2022-07-27T04:32:34.452Z,82.87
2022-07-27T04:35:09.168Z,80.10
2022-07-27T04:38:02.515Z,78.90
2022-07-27T04:40:43.185Z,78.50
2022-07-27T04:43:29.778Z,79.33
2022-07-27T04:46:13.191Z,82.27
2022-07-27T04:48:49.726Z,81.33
2022-07-27T04:51:29.018Z,84.60
2022-07-27T04:54:01.080Z,77.97
2022-07-27T04:56:51.895Z,74.53
2022-07-27T04:59:33.324Z,70.07
2022-07-27T05:02:02.788Z,65.50
2022-07-27T05:04:41.748Z,66.07
2022-07-27T05:07:12.461Z,62.70
2022-07-27T05:09:53.397Z,60.60
2022-07-27T05:12:40.529Z,60.07
2022-07-27T05:15:29.000Z,62.73
2022-07-27T05:18:31.908Z,61.50
2022-07-27T05:21:03.120Z,64.83
2022-07-27T05:23:35.192Z,65.70
2022-07-27T05:26:28.766Z,64.90
2022-07-27T05:29:04.544Z,66.60
2022-07-27T05:31:35.754Z,65.80
2022-07-27T05:34:08.682Z,67.43
2022-07-27T05:36:37.558Z,69.83
2022-07-27T05:39:13.976Z,73.33
2022-07-27T05:41:43.466Z,76.87
2022-07-27T05:44:12.041Z,76.33
2022-07-27T05:46:42.109Z,71.87
2022-07-27T05:49:16.041Z,70.67
2022-07-27T05:51:45.075Z,62.97
2022-07-27T05:54:14.690Z,59.10
2022-07-27T05:56:55.410Z,46.97
2022-07-27T05:59:39.375Z,31.57
2022-07-27T06:02:32.048Z,24.53
2022-07-27T06:05:13.202Z,23.93
2022-07-27T06:08:00.258Z,21.97
2022-07-27T06:10:51.883Z,21.60
2022-07-27T06:13:26.647Z,21.03
2022-07-27T06:16:14.047Z,20.53
2022-07-27T06:18:54.346Z,20.23
2022-07-27T06:21:24.457Z,19.97
2022-07-27T06:23:57.212Z,19.83
2022-07-27T06:26:26.024Z,19.47
2022-07-27T06:29:14.574Z,19.37
2022-07-27T06:31:49.739Z,18.87
2022-07-27T06:34:26.075Z,18.57
2022-07-27T06:37:01.785Z,18.53
2022-07-27T06:39:46.753Z,18.43
2022-07-27T06:42:27.581Z,18.00
2022-07-27T06:44:56.795Z,18.30
2022-07-27T06:47:28.755Z,18.37
2022-07-27T06:49:59.353Z,18.10
2022-07-27T06:52:29.251Z,17.67
2022-07-27T06:54:59.827Z,17.83
2022-07-27T06:57:29.474Z,18.97
2022-07-27T07:00:04.580Z,17.77
2022-07-27T07:02:40.549Z,17.27
2022-07-27T07:05:12.006Z,17.20
2022-07-27T07:07:41.659Z,17.33
2022-07-27T07:10:12.701Z,18.40
2022-07-27T07:12:41.353Z,17.40
2022-07-27T07:15:20.020Z,17.63
2022-07-27T07:17:49.935Z,17.70
2022-07-27T07:20:28.865Z,17.53
2022-07-27T07:22:57.747Z,17.27
2022-07-27T07:25:26.545Z,17.23
2022-07-27T07:28:22.633Z,17.13
2022-07-27T07:31:20.763Z,16.90
2022-07-27T07:34:08.771Z,16.83
2022-07-27T07:37:03.775Z,17.20
2022-07-27T07:39:34.997Z,17.83
2022-07-27T07:42:17.964Z,18.10
2022-07-27T07:44:47.839Z,17.77
2022-07-27T07:47:17.675Z,18.30
2022-07-27T07:49:54.315Z,18.23
2022-07-27T07:52:44.465Z,17.03
2022-07-27T07:55:27.767Z,17.50
2022-07-27T07:58:14.400Z,17.97
2022-07-27T08:00:54.226Z,18.47
2022-07-27T08:03:40.641Z,17.40
2022-07-27T08:06:17.408Z,16.93
2022-07-27T08:08:48.055Z,16.50
2022-07-27T08:11:36.939Z,16.80
2022-07-27T08:14:06.868Z,16.90
2022-07-27T08:16:43.770Z,16.20
2022-07-27T08:19:40.220Z,16.73
2022-07-27T08:22:18.190Z,17.67
2022-07-27T08:24:51.235Z,17.70
2022-07-27T08:27:30.767Z,18.00
2022-07-27T08:30:12.088Z,17.73
2022-07-27T08:33:07.244Z,17.97
2022-07-27T08:35:46.511Z,18.60
2022-07-27T08:38:17.528Z,18.80
2022-07-27T08:40:53.612Z,18.90
2022-07-27T08:43:27.008Z,18.60
2022-07-27T08:46:23.437Z,19.40
2022-07-27T08:48:52.761Z,18.20
2022-07-27T08:51:25.413Z,18.10
2022-07-27T08:54:10.694Z,19.00
2022-07-27T08:56:59.510Z,18.83
2022-07-27T09:00:03.931Z,19.03
2022-07-27T09:02:41.352Z,19.10
2022-07-27T09:05:18.311Z,18.30
2022-07-27T09:07:53.181Z,17.53
2022-07-27T09:10:39.338Z,18.50
2022-07-27T09:13:29.651Z,18.33
2022-07-27T09:16:19.302Z,18.57
2022-07-27T09:19:08.066Z,17.53
2022-07-27T09:21:49.018Z,17.37
2022-07-27T09:24:45.452Z,17.40
2022-07-27T09:27:11.212Z,17.50
2022-07-27T09:30:04.890Z,17.10
2022-07-27T09:32:56.294Z,17.67
2022-07-27T09:35:27.775Z,17.00
2022-07-27T09:38:19.542Z,16.60
2022-07-27T09:41:02.617Z,16.57
2022-07-27T09:46:41.951Z,17.40
2022-07-27T09:49:29.454Z,16.60
2022-07-27T09:52:01.083Z,16.17
2022-07-27T09:54:45.669Z,15.97
2022-07-27T09:57:17.189Z,16.47
2022-07-27T09:59:47.201Z,16.20
2022-07-27T10:02:17.752Z,16.80
2022-07-27T10:04:49.392Z,17.47
2022-07-27T10:07:22.715Z,17.67
2022-07-27T10:09:53.807Z,17.90
2022-07-27T10:12:36.787Z,17.90
2022-07-27T10:15:11.733Z,18.90
2022-07-27T10:17:46.410Z,18.07
2022-07-27T10:20:20.151Z,16.83
2022-07-27T10:23:07.787Z,17.57
2022-07-27T10:25:46.565Z,17.20
2022-07-27T10:28:29.330Z,17.83
2022-07-27T10:31:18.253Z,17.13
2022-07-27T10:34:04.178Z,16.60
2022-07-27T10:36:56.892Z,16.40
2022-07-27T10:39:43.349Z,16.47
2022-07-27T10:42:30.639Z,16.67
2022-07-27T10:45:11.135Z,16.53
2022-07-27T10:47:42.489Z,17.37
2022-07-27T10:50:56.428Z,16.43
2022-07-27T10:54:09.403Z,16.17
2022-07-27T10:56:47.558Z,17.10
2022-07-27T11:02:53.226Z,17.50
2022-07-27T11:05:58.406Z,17.43
2022-07-27T11:08:36.628Z,17.73
2022-07-27T11:11:39.640Z,17.60
2022-07-27T11:14:15.060Z,17.23
2022-07-27T11:19:32.233Z,17.50
2022-07-27T11:22:04.885Z,17.53
2022-07-27T11:24:58.115Z,17.30
2022-07-27T11:27:49.666Z,17.97
2022-07-27T11:30:29.028Z,17.83
2022-07-27T11:32:58.794Z,18.13
2022-07-27T11:35:28.780Z,17.77
2022-07-27T11:38:06.391Z,18.10
2022-07-27T11:41:15.212Z,17.70
2022-07-27T11:43:55.805Z,16.60
2022-07-27T11:46:28.259Z,16.40
2022-07-27T11:49:07.468Z,16.33
2022-07-27T11:51:38.727Z,16.17
2022-07-27T11:54:16.224Z,16.37
2022-07-27T11:56:50.327Z,16.67
2022-07-27T11:59:21.934Z,16.77
2022-07-27T12:01:57.127Z,17.23
2022-07-27T12:04:34.300Z,16.60
2022-07-27T12:07:08.613Z,17.10
2022-07-27T12:09:40.898Z,17.53
2022-07-27T12:12:18.957Z,17.80
2022-07-27T12:14:53.225Z,17.73
2022-07-27T12:17:36.725Z,16.60
2022-07-27T12:20:17.806Z,16.13
2022-07-27T12:22:49.290Z,16.40
2022-07-27T12:25:30.122Z,17.47
2022-07-27T12:28:12.752Z,17.33
2022-07-27T12:30:59.251Z,17.37
2022-07-27T12:33:37.510Z,17.50
2022-07-27T12:36:13.398Z,17.73
2022-07-27T12:38:53.556Z,17.43
2022-07-27T12:41:38.365Z,17.60
2022-07-27T12:44:12.390Z,17.40
2022-07-27T12:46:55.092Z,17.30
2022-07-27T12:49:35.669Z,17.13
2022-07-27T12:52:17.779Z,16.90
2022-07-27T12:54:48.690Z,17.07
2022-07-27T12:57:39.596Z,17.50
2022-07-27T13:00:13.034Z,17.80
2022-07-27T13:02:48.243Z,18.50
2022-07-27T13:05:19.527Z,17.83
2022-07-27T13:07:49.084Z,18.10
2022-07-27T13:10:22.913Z,18.00
2022-07-27T13:12:57.309Z,18.80
2022-07-27T13:15:28.914Z,18.30
2022-07-27T13:17:58.617Z,18.30
2022-07-27T13:20:33.415Z,18.40
2022-07-27T13:23:10.395Z,18.40
2022-07-27T13:25:43.260Z,18.50
2022-07-27T13:28:15.130Z,18.10
2022-07-27T13:31:01.193Z,18.60
2022-07-27T13:33:47.218Z,18.60
2022-07-27T13:36:33.112Z,18.60
2022-07-27T13:39:25.143Z,18.43
2022-07-27T13:42:08.137Z,18.40
2022-07-27T13:45:12.945Z,18.20
2022-07-27T13:48:12.508Z,18.30
2022-07-27T13:50:42.546Z,18.77
2022-07-27T13:53:15.164Z,17.80
2022-07-27T13:56:14.257Z,17.60
2022-07-27T13:58:50.366Z,18.13
2022-07-27T14:01:36.439Z,17.90
2022-07-27T14:04:18.491Z,18.50
2022-07-27T14:06:59.430Z,17.70
2022-07-27T14:09:48.298Z,17.90
2022-07-27T14:12:26.745Z,17.40
2022-07-27T14:14:57.338Z,17.90
2022-07-27T14:17:33.870Z,17.60
2022-07-27T14:20:10.132Z,17.57
2022-07-27T14:22:40.695Z,18.00
2022-07-27T14:25:11.886Z,17.77
2022-07-27T14:27:44.640Z,18.07
2022-07-27T14:30:20.716Z,18.13
2022-07-27T14:33:03.156Z,18.10
2022-07-27T14:35:40.769Z,18.53
2022-07-27T14:38:10.860Z,17.67
2022-07-27T14:40:53.372Z,17.93
2022-07-27T14:43:30.632Z,18.93
2022-07-27T14:46:24.068Z,17.83
2022-07-27T14:49:06.027Z,17.70
2022-07-27T14:51:48.782Z,17.90
2022-07-27T14:54:17.426Z,18.33
2022-07-27T14:56:55.888Z,17.83
2022-07-27T14:59:27.389Z,17.50
2022-07-27T15:02:03.143Z,17.67
2022-07-27T15:04:47.547Z,17.67
2022-07-27T15:07:28.472Z,17.80
2022-07-27T15:10:16.589Z,17.60
2022-07-27T15:12:47.495Z,18.27
2022-07-27T15:15:39.009Z,17.50
2022-07-27T15:18:36.392Z,17.53
2022-07-27T15:21:18.808Z,17.43
2022-07-27T15:23:53.101Z,18.40
2022-07-27T15:26:35.732Z,18.53
2022-07-27T15:29:36.756Z,18.37
2022-07-27T15:32:07.433Z,17.90
2022-07-27T15:34:38.046Z,18.00
2022-07-27T15:37:12.006Z,17.53
2022-07-27T15:39:47.284Z,18.30
2022-07-27T15:42:43.099Z,17.80
2022-07-27T15:45:28.920Z,18.30
2022-07-27T15:48:23.309Z,17.97
2022-07-27T15:51:31.336Z,17.83
2022-07-27T15:54:24.390Z,19.10
2022-07-27T15:57:04.466Z,18.83
2022-07-27T15:59:35.054Z,19.13
2022-07-27T16:02:11.003Z,18.40
2022-07-27T16:04:46.443Z,18.13
2022-07-27T16:07:17.106Z,18.10
2022-07-27T16:09:53.978Z,17.63
2022-07-27T16:12:27.097Z,17.43
2022-07-27T16:15:09.038Z,17.27
2022-07-27T16:17:43.498Z,17.30
2022-07-27T16:20:34.973Z,17.10
2022-07-27T16:23:28.099Z,16.93
2022-07-27T16:26:07.024Z,16.80
2022-07-27T16:28:54.408Z,16.70
2022-07-27T16:31:38.067Z,16.97
2022-07-27T16:34:16.088Z,17.63
2022-07-27T16:36:51.178Z,17.87
2022-07-27T16:39:20.135Z,17.30
2022-07-27T16:42:20.637Z,18.90
2022-07-27T16:44:51.873Z,17.57
2022-07-27T16:47:20.458Z,17.30
2022-07-27T16:50:09.515Z,17.30
2022-07-27T16:52:53.655Z,16.57
2022-07-27T16:55:58.283Z,16.80
2022-07-27T16:58:51.751Z,17.00
2022-07-27T17:01:59.549Z,17.23
2022-07-27T17:04:31.732Z,16.73
2022-07-27T17:07:35.205Z,16.60
2022-07-27T17:10:06.653Z,16.57
2022-07-27T17:12:48.073Z,16.90
2022-07-27T17:15:24.444Z,16.67
2022-07-27T17:18:00.572Z,16.80
2022-07-27T17:21:07.336Z,16.33
2022-07-27T17:23:49.227Z,16.33
2022-07-27T17:30:15.589Z,17.00
2022-07-27T17:32:57.323Z,16.90
2022-07-27T17:35:39.706Z,17.37
2022-07-27T17:38:26.853Z,16.90
2022-07-27T17:41:08.109Z,17.23
2022-07-27T17:43:38.962Z,17.20
2022-07-27T17:46:14.176Z,17.77
2022-07-27T17:49:47.093Z,17.37
2022-07-27T17:53:11.494Z,16.90
2022-07-27T17:56:15.038Z,17.40
2022-07-27T17:59:37.081Z,18.23
2022-07-27T18:02:09.313Z,17.90
2022-07-27T18:04:52.855Z,18.33
2022-07-27T18:07:28.088Z,17.97
2022-07-27T18:10:13.030Z,17.70
2022-07-27T18:13:00.081Z,17.63
2022-07-27T18:15:51.217Z,18.20
2022-07-27T18:18:33.183Z,17.93
2022-07-27T18:21:04.516Z,17.87
2022-07-27T18:23:41.534Z,17.97
2022-07-27T18:26:13.200Z,17.80
2022-07-27T18:28:59.129Z,17.70
2022-07-27T18:31:33.488Z,17.13
2022-07-27T18:34:12.448Z,17.23
2022-07-27T18:37:08.077Z,17.47
2022-07-27T18:39:38.502Z,17.07
2022-07-27T18:42:13.646Z,17.03
2022-07-27T18:45:34.711Z,17.30
2022-07-27T18:48:46.341Z,17.60
2022-07-27T18:51:30.207Z,17.73
2022-07-27T18:54:06.982Z,17.60
2022-07-27T18:57:04.279Z,17.60
2022-07-27T18:59:54.421Z,17.50
2022-07-27T19:02:39.813Z,17.30
2022-07-27T19:05:40.616Z,17.63
2022-07-27T19:08:29.999Z,17.07
2022-07-27T19:11:09.790Z,16.90
2022-07-27T19:13:56.410Z,16.80
2022-07-27T19:16:38.748Z,16.60
2022-07-27T19:19:40.125Z,16.80
2022-07-27T19:22:22.526Z,17.57
2022-07-27T19:25:22.588Z,17.20
2022-07-27T19:28:12.119Z,17.50
2022-07-27T19:31:00.790Z,17.60
2022-07-27T19:33:57.082Z,16.90
2022-07-27T19:37:44.915Z,17.50
2022-07-27T19:40:49.355Z,17.67
2022-07-27T19:43:38.489Z,17.80
2022-07-27T19:47:00.731Z,17.90
2022-07-27T19:50:10.899Z,17.97
2022-07-27T19:56:39.421Z,17.90
2022-07-27T19:59:57.189Z,17.97
2022-07-27T20:03:21.227Z,18.40
2022-07-27T20:06:28.837Z,18.43
2022-07-27T20:17:02.777Z,17.97
2022-07-27T20:20:48.117Z,18.20
2022-07-27T20:24:20.478Z,18.60
2022-07-27T20:39:25.409Z,17.63
2022-07-27T20:42:40.301Z,17.60
2022-07-27T20:55:47.551Z,18.00
2022-07-27T20:58:21.513Z,18.20
2022-07-27T21:01:04.159Z,18.33
2022-07-27T21:03:34.727Z,19.33
2022-07-27T21:06:05.661Z,18.37
2022-07-27T21:08:51.370Z,18.43
2022-07-27T21:11:25.349Z,17.70
2022-07-27T21:14:14.770Z,18.00
2022-07-27T21:16:45.596Z,17.53
2022-07-27T21:19:15.212Z,17.47
2022-07-27T21:22:40.703Z,17.80
2022-07-27T21:25:45.880Z,17.90
2022-07-27T21:29:26.991Z,17.87
2022-07-27T21:32:08.187Z,18.47
2022-07-27T21:34:45.789Z,18.03
2022-07-27T21:37:30.957Z,18.43
2022-07-27T21:40:25.165Z,18.37
2022-07-27T21:43:13.169Z,17.93
2022-07-27T21:45:49.458Z,17.57
2022-07-27T21:48:23.650Z,18.67
2022-07-27T21:51:00.989Z,17.57
2022-07-27T21:53:29.620Z,17.83
2022-07-27T21:55:58.443Z,17.67
2022-07-27T21:58:27.445Z,17.43
2022-07-27T22:00:56.880Z,17.70
2022-07-27T22:03:41.650Z,17.80
2022-07-27T22:06:15.776Z,17.60
2022-07-27T22:08:46.437Z,18.60
2022-07-27T22:11:17.060Z,18.40
2022-07-27T22:13:57.881Z,19.80
2022-07-27T22:16:49.546Z,19.07
2022-07-27T22:19:20.624Z,19.60
2022-07-27T22:21:57.109Z,19.67
2022-07-27T22:24:27.577Z,19.33
2022-07-27T22:27:05.965Z,19.13
2022-07-27T22:29:37.018Z,17.87
2022-07-27T22:32:16.660Z,20.30
2022-07-27T22:34:48.879Z,19.40
2022-07-27T22:37:39.222Z,18.40
2022-07-27T22:40:49.071Z,18.77
2022-07-27T22:43:33.347Z,19.30
2022-07-27T22:46:10.234Z,19.00
2022-07-27T22:48:42.688Z,18.13
2022-07-27T22:51:49.490Z,18.53
2022-07-27T22:54:17.907Z,18.30
2022-07-27T22:56:53.598Z,18.30
2022-07-27T22:59:30.997Z,18.53
2022-07-27T23:02:09.615Z,18.70
2022-07-27T23:04:39.139Z,18.33
2022-07-27T23:07:09.240Z,18.90
2022-07-27T23:09:47.088Z,18.27
2022-07-27T23:12:29.660Z,18.40
2022-07-27T23:15:11.913Z,18.27
2022-07-27T23:17:41.862Z,18.30
2022-07-27T23:20:29.010Z,18.70
2022-07-27T23:23:00.940Z,19.00
2022-07-27T23:25:36.543Z,18.60
2022-07-27T23:28:19.097Z,18.33
2022-07-27T23:30:51.453Z,19.10
2022-07-27T23:33:35.718Z,18.70
2022-07-27T23:36:17.566Z,18.40
2022-07-27T23:39:02.963Z,18.60
2022-07-27T23:41:53.223Z,18.60
2022-07-27T23:44:22.802Z,18.33
2022-07-27T23:46:51.726Z,19.45
2022-07-27T23:49:20.805Z,18.67
2022-07-27T23:52:07.886Z,18.73
2022-07-27T23:54:57.495Z,18.70
2022-07-27T23:57:26.183Z,18.70
